Flight Track Log - Related Links

Times and Time Zones

All times are in EDT time to prevent confusion due to time zone crossing. See the FLG3746 flight status page for this flight to view local times or setup timezone preferences in your user account.

Time Position Orientation Groundspeed Altitude Reporting Facility
EDT Latitude Longitude Course Direction KTS MPH feet Rate Location/Type
Fri 02:32:08 PM 42.8211 -73.8442 333° Northwest 212 244 3,900  Level Boston Center
Fri 02:33:07 PM 42.8683 -73.8989 320° Northwest 234 269 6,200 2,420 Climbing Boston Center
Fri 02:34:00 PM 42.8268 -74.2875 281° West  Level FlightAware Approximate
Fri 02:34:07 PM 42.9217 -73.9628 319° Northwest 258 297 8,700  Level Boston Center
Fri 02:35:00 PM 42.8465 -74.4122 283° West  Level FlightAware Approximate
Fri 02:35:07 PM 42.9850 -74.0464 316° Northwest 284 327 10,600  Level Boston Center
Fri 02:36:00 PM 42.8680 -74.5361 304° West  Level FlightAware Approximate
Fri 02:36:19 PM 43.0628 -74.1481 316° Northwest 322 371 13,100  Level Boston Center
Fri 02:37:19 PM 43.1261 -74.2381 314° West 330 380 15,100 1,700 Climbing Boston Center
Fri 02:38:19 PM 43.1914 -74.3311 314° West 330 380 16,500 1,200 Climbing Boston Center
Fri 02:39:19 PM 43.2142 -74.4542 284° West 325 374 17,500 900 Climbing Boston Center
Fri 02:40:19 PM 43.2100 -74.5739 267° West 325 374 18,300 1,000 Climbing Boston Center
Fri 02:41:19 PM 43.2072 -74.7103 268° West 347 399 19,500 1,109 Climbing Boston Center
Fri 02:42:18 PM 43.2050 -74.8186 268° West 354 407 20,500 1,250 Climbing Boston Center
Fri 02:43:19 PM 43.2017 -74.9781 268° West 354 407 22,000 1,145 Climbing Boston Center
Fri 02:45:00 PM 43.1843 -75.1926 264° West  Level Estimated
Fri 02:46:19 PM 43.1875 -75.3875 264° West 354 407 25,100  Level Boston Center
Fri 02:47:19 PM 43.1839 -75.5242 268° West 354 407 25,700 550 Climbing Boston Center
Fri 02:48:19 PM 43.1803 -75.6633 268° West 359 413 26,200 500 Climbing Boston Center
Fri 02:49:19 PM 43.1761 -75.8056 268° West 364 419 26,700 500 Climbing Boston Center
Fri 02:50:19 PM 43.1717 -75.9478 268° West 370 426 27,200 500 Climbing Boston Center
Fri 02:51:19 PM 43.1653 -76.0897 267° West 381 438 27,700 400 Climbing Boston Center
Fri 02:52:19 PM 43.1583 -76.2375 266° West 381 438 28,000 113 Climbing Boston Center
Fri 02:53:58 PM 43.1381 -76.4886 264° West 411 473 28,000  Level Cleveland Center
Fri 02:54:58 PM 43.1225 -76.6433 262° West 411 473 28,000  Level Cleveland Center
Fri 02:55:58 PM 43.1108 -76.7864 264° West 411 473 28,000  Level Cleveland Center
Fri 02:56:58 PM 43.0950 -76.9467 262° West 417 480 28,000  Level Cleveland Center
Fri 02:57:58 PM 43.0811 -77.1039 263° West 417 480 28,000  Level Cleveland Center
Fri 02:58:58 PM 43.0672 -77.2667 263° West 430 495 28,000  Level Cleveland Center
Fri 02:59:58 PM 43.0528 -77.4267 263° West 430 495 28,000  Level Cleveland Center
Fri 03:00:58 PM 43.0383 -77.5864 263° West 430 495 28,000  Level Cleveland Center
Fri 03:01:58 PM 43.0217 -77.7492 262° West 430 495 28,000  Level Cleveland Center
Fri 03:02:58 PM 43.0050 -77.9286 263° West 430 495 28,000  Level Cleveland Center
Fri 03:03:58 PM 42.9878 -78.0883 262° West 430 495 28,000  Level Cleveland Center
Fri 03:04:58 PM 42.9703 -78.2508 262° West 430 495 28,000  Level Cleveland Center
Fri 03:05:58 PM 42.9583 -78.3817 263° West 430 495 28,000  Level Cleveland Center
Fri 03:06:58 PM 42.9389 -78.5725 262° West 430 495 28,000  Level Cleveland Center
Fri 03:07:58 PM 42.9186 -78.7375 261° West 430 495 28,000  Level Cleveland Center
Fri 03:08:58 PM 42.8961 -78.8997 259° West 430 495 28,000  Level Cleveland Center
Fri 03:09:58 PM 42.8733 -79.0592 259° West 430 495 28,000  Level Cleveland Center
Fri 03:10:58 PM 42.8461 -79.2239 257° West 430 495 28,000  Level Cleveland Center
Fri 03:11:58 PM 42.8228 -79.3831 259° West 430 495 28,000  Level Cleveland Center
Fri 03:12:58 PM 42.8017 -79.5475 260° West 436 502 28,000  Level Cleveland Center
Fri 03:13:58 PM 42.7758 -79.7119 258° West 436 502 28,000  Level Cleveland Center
Fri 03:14:58 PM 42.7539 -79.8764 260° West 436 502 28,000  Level Cleveland Center
Fri 03:15:58 PM 42.7425 -80.0433 265° West 442 509 28,000  Level Cleveland Center
Fri 03:16:58 PM 42.7367 -80.2072 267° West 447 514 28,000  Level Cleveland Center
Fri 03:17:58 PM 42.7289 -80.3742 266° West 442 509 28,000  Level Cleveland Center
Fri 03:18:58 PM 42.7228 -80.5436 267° West 442 509 28,000  Level Cleveland Center
Fri 03:19:58 PM 42.7144 -80.7047 266° West 442 509 28,000  Level Cleveland Center
Fri 03:20:58 PM 42.7058 -80.8714 266° West 442 509 28,000 -350 Level Cleveland Center
Fri 03:21:58 PM 42.6886 -81.0381 262° West 442 509 27,300 -1,900 Descending Cleveland Center
Fri 03:22:58 PM 42.6733 -81.1989 263° West 442 509 24,200 -1,650 Descending Cleveland Center
Fri 03:23:58 PM 42.6556 -81.3425 260° West 426 490 24,000 -100 Descending Cleveland Center
Fri 03:24:58 PM 42.6381 -81.4892 261° West 402 463 24,000  Level Cleveland Center
Fri 03:25:58 PM 42.6203 -81.6186 259° West 397 457 24,000  Level Cleveland Center
Fri 03:26:58 PM 42.6042 -81.7678 262° West 392 451 24,000 -450 Level Cleveland Center
Fri 03:27:58 PM 42.5858 -81.9142 260° West 392 451 23,100 -1,850 Descending Cleveland Center
Fri 03:28:58 PM 42.5694 -82.0547 261° West 392 451 20,300 -2,650 Descending Cleveland Center
Fri 03:29:58 PM 42.5511 -82.1869 259° West 386 444 17,800 -2,600 Descending Cleveland Center
Fri 03:30:58 PM 42.5347 -82.3161 260° West 366 421 15,100 -2,882 Descending Cleveland Center
Fri 03:31:40 PM 42.5247 -82.4144 262° West 331 381 12,900 -1,617 Descending Cleveland Center
Fri 03:32:53 PM 42.5017 -82.5603 258° West 324 373 12,000 -985 Descending Cleveland Center
Fri 03:33:54 PM 42.4664 -82.6689 246° West 302 348 10,700 -1,392 Descending Cleveland Center
Fri 03:34:58 PM 42.4314 -82.7578 242° Southwest 304 350 9,100 -1,707 Descending Cleveland Center
Fri 03:35:50 PM 42.4086 -82.8469 251° West 262 302 7,400 -1,738 Descending Cleveland Center
Fri 03:36:45 PM 42.4047 -82.9367 267° West 253 291 6,000 -764 Descending Cleveland Center
Fri 03:37:40 PM 42.4011 -83.0211 267° West 251 289 6,000 -902 Level Cleveland Center
Fri 03:38:58 PM 42.3942 -83.1389 265° West 258 297 4,000 -1,538 Descending Cleveland Center

Login

Don't have an account? Register now (free) for customized features, flight alerts, and more!